Time;durP1;ratioP1;P1;durP2;ratioP2;P2;SDS_P1;SDS_P2;PMS_P1;PMS_P2;Temp;Humidity;BMP_temperature;BMP_pressure;BME280_temperature;BME280_humidity;BME280_pressure;Samples;Min_cycle;Max_cycle;Signal;HPM_P1;HPM_P2
2024/04/11 00:01:59;;;;;;;5.10;3.83;;;;;;;12.67;81.81;101035.72;5342730;26;20071;-68
2024/04/11 00:04:25;;;;;;;7.20;4.10;;;;;;;12.88;82.16;101033.91;5342331;26;20041;-72
2024/04/11 00:06:50;;;;;;;7.00;4.18;;;;;;;13.07;80.82;101040.66;5343260;26;20008;-71
2024/04/11 00:09:16;;;;;;;8.88;4.32;;;;;;;13.15;79.33;101040.94;5342560;26;20008;-70
2024/04/11 00:11:42;;;;;;;6.28;4.05;;;;;;;12.82;75.02;101025.06;5343239;26;20052;-72
2024/04/11 00:14:08;;;;;;;6.15;3.85;;;;;;;12.34;74.47;101047.44;5350165;26;20008;-72
2024/04/11 00:16:34;;;;;;;6.45;3.72;;;;;;;12.21;74.96;101045.19;5381401;26;19996;-71
2024/04/11 00:18:59;;;;;;;7.60;3.90;;;;;;;12.22;74.06;101046.97;5380770;26;20004;-73
2024/04/11 00:21:25;;;;;;;7.45;4.43;;;;;;;12.18;74.72;101047.69;5381059;26;20033;-71
2024/04/11 00:23:51;;;;;;;5.97;3.67;;;;;;;12.31;74.31;101047.31;5449218;26;19999;-69
2024/04/11 00:26:17;;;;;;;6.95;3.70;;;;;;;12.32;74.47;101038.72;5449457;26;19995;-70
2024/04/11 00:28:42;;;;;;;5.50;3.60;;;;;;;12.44;74.43;101053.88;5449209;26;20017;-71
2024/04/11 00:31:08;;;;;;;6.15;3.78;;;;;;;12.03;76.09;101056.59;5449196;26;19999;-72
2024/04/11 00:33:34;;;;;;;8.32;4.15;;;;;;;11.73;78.44;101035.50;5448838;26;19994;-71
2024/04/11 00:35:59;;;;;;;9.23;4.22;;;;;;;11.88;78.81;101043.00;5448365;26;20858;-71
2024/04/11 00:38:27;;;;;;;9.70;3.78;;;;;;;11.97;79.02;101039.13;5448187;26;19999;-68
2024/04/11 00:40:59;;;;;;;7.38;4.20;;;;;;;11.87;79.92;101057.63;5448958;26;20002;-69
2024/04/11 00:43:30;;;;;;;8.43;4.15;;;;;;;11.82;81.37;101035.84;5448977;26;20019;-68
2024/04/11 00:45:57;;;;;;;7.53;4.05;;;;;;;12.00;80.49;101053.88;5389085;26;20018;-70
2024/04/11 00:48:23;;;;;;;10.68;4.50;;;;;;;12.08;80.85;101049.00;5448734;26;20006;-69
2024/04/11 00:50:50;;;;;;;12.52;5.18;;;;;;;12.12;82.97;101049.19;5448844;26;19995;-71
2024/04/11 00:53:17;;;;;;;9.50;4.70;;;;;;;11.53;80.98;100946.75;5448673;26;20011;-71
2024/04/11 00:55:42;;;;;;;8.20;4.75;;;;;;;11.69;81.91;101025.81;5391698;26;20004;-70
2024/04/11 00:58:11;;;;;;;12.60;5.07;;;;;;;10.95;85.69;101005.47;5380372;26;19992;-70
2024/04/11 01:00:38;;;;;;;10.98;4.40;;;;;;;10.96;88.50;101044.28;5380500;26;20015;-70
2024/04/11 01:03:04;;;;;;;8.25;4.85;;;;;;;10.48;90.79;101008.59;5379617;26;20008;-70
2024/04/11 01:05:32;;;;;;;15.38;4.78;;;;;;;10.81;91.14;101046.19;5380705;26;20000;-68
2024/04/11 01:07:58;;;;;;;10.98;4.18;;;;;;;10.61;93.11;101060.78;5349412;26;20409;-67
2024/04/11 01:10:25;;;;;;;11.18;4.68;;;;;;;10.54;94.79;101046.69;5380684;26;20045;-71
2024/04/11 01:12:51;;;;;;;12.63;4.15;;;;;;;10.56;93.88;101042.50;5379952;26;20011;-69
2024/04/11 01:15:17;;;;;;;8.10;3.95;;;;;;;10.53;94.72;101055.28;5380352;26;20072;-73
2024/04/11 01:17:47;;;;;;;9.68;4.25;;;;;;;10.28;95.65;101032.53;5379953;26;20000;-68
2024/04/11 01:20:12;;;;;;;12.38;4.50;;;;;;;10.45;95.38;101023.91;5380499;26;20342;-70
2024/04/11 01:22:41;;;;;;;8.07;4.40;;;;;;;10.79;93.36;101047.81;5379863;26;20011;-70
2024/04/11 01:25:12;;;;;;;11.80;4.15;;;;;;;11.02;90.43;101040.25;5379868;26;20005;-68
2024/04/11 01:27:38;;;;;;;11.05;4.38;;;;;;;11.12;89.68;101039.81;5358025;26;20000;-68
2024/04/11 01:30:04;;;;;;;8.55;4.25;;;;;;;10.99;88.42;101028.03;5379585;26;20028;-72
2024/04/11 01:32:30;;;;;;;7.75;4.40;;;;;;;10.90;87.87;101013.00;5380187;26;20015;-70
2024/04/11 01:34:59;;;;;;;11.35;4.18;;;;;;;10.99;87.56;101017.69;5379879;26;20036;-69
2024/04/11 01:37:28;;;;;;;7.75;4.30;;;;;;;10.87;90.16;101024.94;5379900;26;20000;-68
2024/04/11 01:39:55;;;;;;;9.40;3.80;;;;;;;10.92;90.05;101046.69;5379722;26;20326;-72
2024/04/11 01:42:21;;;;;;;10.23;4.20;;;;;;;10.90;91.72;101032.81;5380155;26;20004;-72
2024/04/11 01:44:46;;;;;;;7.43;4.10;;;;;;;10.79;89.66;101002.22;5379859;26;20006;-71
2024/04/11 01:47:14;;;;;;;7.47;4.25;;;;;;;11.10;87.59;101046.59;5371060;26;19997;-68
2024/04/11 01:49:41;;;;;;;6.88;4.30;;;;;;;10.66;88.33;101036.06;5370797;26;20010;-70
2024/04/11 01:52:09;;;;;;;9.43;4.40;;;;;;;10.57;86.79;101027.91;5380150;26;20000;-73
2024/04/11 01:54:38;;;;;;;10.27;4.60;;;;;;;10.46;87.38;101040.31;5379778;26;20008;-68
2024/04/11 01:57:05;;;;;;;9.00;4.50;;;;;;;10.33;88.36;101049.13;5379606;26;20018;-72
2024/04/11 01:59:31;;;;;;;8.18;4.82;;;;;;;10.28;88.38;101045.44;5379189;26;20004;-70
2024/04/11 02:01:57;;;;;;;6.38;4.30;;;;;;;10.39;88.26;101056.31;5379568;26;20000;-68
2024/04/11 02:04:23;;;;;;;11.50;4.30;;;;;;;10.50;87.29;101040.53;5378817;26;20000;-69
2024/04/11 02:06:48;;;;;;;5.90;3.80;;;;;;;10.32;85.88;100998.34;5378053;26;20004;-69
2024/04/11 02:09:21;;;;;;;8.77;3.78;;;;;;;10.45;87.82;101047.16;5379322;26;20026;-68
2024/04/11 02:11:49;;;;;;;9.00;4.05;;;;;;;10.44;93.18;101054.81;5379415;26;20023;-68
2024/04/11 02:14:16;;;;;;;8.05;3.60;;;;;;;10.45;93.09;101054.00;5379129;26;20427;-74
2024/04/11 02:16:42;;;;;;;7.95;3.95;;;;;;;10.52;92.35;101061.25;5379472;26;20032;-69
2024/04/11 02:19:07;;;;;;;6.63;3.70;;;;;;;10.58;92.01;101071.84;5377238;26;20492;-71
2024/04/11 02:21:43;;;;;;;8.90;3.30;;;;;;;10.41;91.81;101075.34;5379607;26;20054;-69
2024/04/11 02:24:18;;;;;;;5.22;3.33;;;;;;;10.09;92.44;101036.81;5378315;26;20019;-72
2024/04/11 02:26:48;;;;;;;6.10;3.90;;;;;;;10.28;92.00;101066.09;5379080;26;20004;-69
2024/04/11 02:29:15;;;;;;;8.63;3.60;;;;;;;10.45;91.62;101080.69;5379389;26;20335;-72
2024/04/11 02:31:44;;;;;;;10.57;4.05;;;;;;;10.08;90.59;101008.38;5379072;26;20004;-73
2024/04/11 02:34:10;;;;;;;6.63;3.40;;;;;;;10.26;88.87;101068.59;5379695;26;20419;-73
2024/04/11 02:36:35;;;;;;;9.02;4.05;;;;;;;10.31;85.27;101072.28;5375230;26;20036;-68
2024/04/11 02:39:04;;;;;;;11.18;4.63;;;;;;;10.07;83.98;101064.25;5376366;26;20020;-68
2024/04/11 02:41:30;;;;;;;15.55;5.10;;;;;;;9.98;83.96;101074.09;5377121;26;20385;-68
2024/04/11 02:43:57;;;;;;;17.00;4.47;;;;;;;10.09;83.80;101093.56;5378873;26;20004;-69
2024/04/11 02:46:25;;;;;;;10.73;4.38;;;;;;;9.86;84.32;101053.78;5379021;26;20000;-70
2024/04/11 02:48:51;;;;;;;17.30;4.57;;;;;;;10.02;83.45;101079.50;5378676;26;20000;-70
2024/04/11 02:51:22;;;;;;;9.00;4.22;;;;;;;9.93;83.85;101094.53;5378822;26;20011;-71
2024/04/11 02:53:48;;;;;;;10.27;4.47;;;;;;;9.71;86.43;101095.16;5378561;26;20508;-70
2024/04/11 02:56:14;;;;;;;7.93;3.92;;;;;;;9.41;86.06;101059.28;5376213;26;20031;-70
2024/04/11 02:58:39;;;;;;;10.20;4.20;;;;;;;9.46;87.53;101108.47;5378544;26;20070;-69
2024/04/11 03:01:07;;;;;;;10.55;4.22;;;;;;;9.48;87.66;101093.97;5375280;26;20004;-72
2024/04/11 03:03:34;;;;;;;8.50;4.45;;;;;;;9.60;84.89;101098.88;5381934;26;20054;-69
2024/04/11 03:06:16;;;;;;;12.88;3.92;;;;;;;9.65;84.23;101112.88;5377418;26;20070;-72
2024/04/11 03:08:42;;;;;;;11.48;3.90;;;;;;;9.64;83.84;101127.44;5381850;26;20004;-75
2024/04/11 03:11:11;;;;;;;9.00;4.10;;;;;;;9.71;83.80;101123.50;5381849;26;20004;-68
2024/04/11 03:13:40;;;;;;;7.32;4.15;;;;;;;9.63;83.86;101117.06;5382191;26;20008;-69
2024/04/11 03:16:06;;;;;;;9.57;4.85;;;;;;;9.24;87.35;101130.53;5381940;26;20386;-68
2024/04/11 03:18:34;;;;;;;9.85;4.82;;;;;;;9.00;88.76;101109.53;5381341;26;20011;-67
2024/04/11 03:21:00;;;;;;;10.63;4.30;;;;;;;9.18;89.44;101132.78;5381814;26;20012;-72
2024/04/11 03:23:27;;;;;;;7.70;4.25;;;;;;;9.22;89.03;101135.63;5381805;26;20012;-71
2024/04/11 03:25:53;;;;;;;13.57;4.45;;;;;;;9.28;88.74;101141.91;5381992;26;20431;-68
2024/04/11 03:28:21;;;;;;;13.65;5.50;;;;;;;9.26;88.81;101148.66;5381187;26;20000;-70
2024/04/11 03:30:53;;;;;;;12.13;4.90;;;;;;;9.37;88.08;101145.84;5408367;26;20058;-71
2024/04/11 03:33:18;;;;;;;8.10;4.60;;;;;;;9.53;86.08;101147.53;5381544;26;20012;-70
2024/04/11 03:35:53;;;;;;;14.98;4.32;;;;;;;9.47;83.15;101154.06;5380627;26;20320;-73
2024/04/11 03:38:18;;;;;;;11.10;4.18;;;;;;;9.28;84.15;101158.22;5381497;26;20015;-69
2024/04/11 03:41:03;;;;;;;8.45;4.40;;;;;;;8.89;84.88;101117.53;5375600;26;19996;-74
2024/04/11 03:43:54;;;;;;;8.50;4.50;;;;;;;9.24;85.31;101169.19;5378692;26;19992;-69
2024/04/11 03:46:23;;;;;;;8.10;4.57;;;;;;;9.33;85.78;101172.28;5378895;26;20003;-70
2024/04/11 03:48:51;;;;;;;11.32;5.05;;;;;;;9.41;86.08;101158.88;5379041;26;19993;-69
2024/04/11 03:51:22;;;;;;;12.70;5.00;;;;;;;9.29;85.51;101169.44;5377882;26;20066;-71
2024/04/11 03:53:56;;;;;;;9.43;4.35;;;;;;;8.97;87.34;101173.72;5378725;26;19992;-69
2024/04/11 03:56:23;;;;;;;14.77;5.57;;;;;;;8.93;88.34;101169.22;5378560;26;20004;-69
2024/04/11 03:58:50;;;;;;;11.68;4.95;;;;;;;8.93;88.49;101176.94;5378536;26;20350;-68
2024/04/11 04:01:16;;;;;;;12.75;4.63;;;;;;;8.93;88.53;101171.78;5376867;26;20584;-69
2024/04/11 04:03:43;;;;;;;9.98;4.70;;;;;;;9.08;88.90;101177.78;5378376;26;20003;-74
2024/04/11 04:06:10;;;;;;;8.10;4.32;;;;;;;9.06;88.24;101169.09;5377873;26;19996;-67
2024/04/11 04:08:37;;;;;;;8.73;4.13;;;;;;;9.16;87.92;101179.09;5378576;26;20039;-73
2024/04/11 04:11:05;;;;;;;10.13;4.60;;;;;;;9.09;87.03;101153.78;5349627;26;20020;-69
2024/04/11 04:13:32;;;;;;;14.00;5.00;;;;;;;9.29;86.08;101178.03;5377994;26;19992;-69
2024/04/11 04:15:58;;;;;;;10.80;5.00;;;;;;;9.37;84.90;101192.25;5381415;26;19996;-69
2024/04/11 04:18:25;;;;;;;9.88;4.88;;;;;;;9.34;84.45;101194.63;5381215;26;20393;-72
2024/04/11 04:20:58;;;;;;;10.93;5.22;;;;;;;9.32;84.48;101179.91;5379210;26;20015;-70
2024/04/11 04:23:24;;;;;;;16.42;5.00;;;;;;;9.38;84.39;101180.22;5364007;26;20001;-74
2024/04/11 04:26:08;;;;;;;15.88;6.20;;;;;;;9.54;84.22;101188.00;5346315;26;20472;-70
2024/04/11 04:28:35;;;;;;;18.58;6.72;;;;;;;9.28;84.28;101136.75;5371831;26;20405;-69
2024/04/11 04:31:20;;;;;;;15.25;4.88;;;;;;;9.69;83.78;101192.16;5382038;26;20023;-69
2024/04/11 04:33:47;;;;;;;15.15;5.68;;;;;;;9.49;83.32;101155.03;5378767;26;20067;-69
2024/04/11 04:36:26;;;;;;;12.82;5.07;;;;;;;9.69;83.22;101176.69;5381837;26;20649;-71
2024/04/11 04:38:56;;;;;;;15.55;5.63;;;;;;;9.58;83.89;101196.75;5381670;26;20007;-70
2024/04/11 04:41:27;;;;;;;10.77;5.28;;;;;;;9.61;85.08;101209.81;5382036;26;20461;-73
2024/04/11 04:43:54;;;;;;;18.50;5.68;;;;;;;9.29;86.76;101175.47;5381800;26;20001;-71
2024/04/11 04:46:28;;;;;;;8.13;4.35;;;;;;;9.09;88.73;101176.09;5379375;26;20004;-70
2024/04/11 04:48:55;;;;;;;10.45;4.82;;;;;;;9.06;90.43;101226.63;5373611;26;20108;-72
2024/04/11 04:51:26;;;;;;;7.03;4.70;;;;;;;8.82;92.33;101223.59;5346295;26;20001;-69
2024/04/11 04:53:53;;;;;;;8.55;4.07;;;;;;;8.31;97.82;101228.38;5346172;26;20001;-75
2024/04/11 04:56:22;;;;;;;10.00;5.40;;;;;;;7.97;100.00;101218.66;5346191;26;20457;-68
2024/04/11 04:58:49;;;;;;;10.90;5.10;;;;;;;7.75;100.00;101198.50;5368787;26;20449;-73
2024/04/11 05:01:15;;;;;;;11.40;5.70;;;;;;;7.52;100.00;101162.03;5380447;26;20015;-68
2024/04/11 05:03:43;;;;;;;10.90;5.75;;;;;;;7.84;100.00;101237.63;5380673;26;20019;-68
2024/04/11 05:06:09;;;;;;;9.75;5.63;;;;;;;7.88;100.00;101215.56;5362902;26;19997;-68
2024/04/11 05:08:35;;;;;;;8.88;5.50;;;;;;;8.08;100.00;101217.63;5344301;26;20016;-68
2024/04/11 05:11:12;;;;;;;9.35;6.20;;;;;;;8.30;100.00;101239.47;5361658;26;20079;-69
2024/04/11 05:13:45;;;;;;;9.23;5.32;;;;;;;8.34;100.00;101235.41;5361655;26;20001;-69
2024/04/11 05:16:18;;;;;;;10.95;6.03;;;;;;;8.40;100.00;101239.19;5364973;26;20031;-69
2024/04/11 05:18:46;;;;;;;10.32;5.20;;;;;;;8.40;100.00;101249.50;5361693;26;19992;-69
2024/04/11 05:21:16;;;;;;;14.38;6.22;;;;;;;8.39;100.00;101254.56;5357727;26;20036;-69
2024/04/11 05:23:43;;;;;;;11.10;6.43;;;;;;;8.50;100.00;101255.19;5353899;26;19992;-71
2024/04/11 05:26:14;;;;;;;8.45;5.57;;;;;;;8.63;100.00;101260.25;5357642;26;20067;-70
2024/04/11 05:28:44;;;;;;;11.20;5.75;;;;;;;8.50;100.00;101211.44;5359131;26;20129;-71
2024/04/11 05:31:16;;;;;;;12.18;6.50;;;;;;;8.95;100.00;101242.28;5369246;26;20007;-69
2024/04/11 05:33:43;;;;;;;13.07;5.80;;;;;;;9.31;100.00;101260.56;5348535;26;20000;-72
2024/04/11 05:36:12;;;;;;;10.50;5.43;;;;;;;9.29;100.00;101215.81;5337974;26;20938;-71
2024/04/11 05:38:41;;;;;;;9.30;5.90;;;;;;;9.67;100.00;101265.94;5342399;26;19997;-70
2024/04/11 05:41:09;;;;;;;16.42;6.28;;;;;;;9.84;100.00;101272.91;5342776;26;20091;-70
2024/04/11 05:43:35;;;;;;;11.93;6.35;;;;;;;9.74;100.00;101262.03;5343049;26;19993;-69
2024/04/11 05:46:02;;;;;;;16.00;6.68;;;;;;;9.86;100.00;101273.88;5314103;26;20012;-69
2024/04/11 05:48:28;;;;;;;9.45;5.90;;;;;;;10.02;99.23;101275.56;5342616;26;20443;-68
2024/04/11 05:50:55;;;;;;;12.27;6.18;;;;;;;10.19;96.77;101265.22;5285645;26;20043;-71
2024/04/11 05:53:21;;;;;;;8.55;5.53;;;;;;;9.87;97.15;101189.66;5349211;26;20585;-69
2024/04/11 05:55:46;;;;;;;10.27;6.25;;;;;;;10.35;96.94;101239.41;5342917;26;19997;-72
2024/04/11 05:58:12;;;;;;;9.80;6.45;;;;;;;10.70;96.03;101265.22;5343005;26;20688;-70
2024/04/11 06:00:39;;;;;;;12.77;6.45;;;;;;;10.91;94.19;101264.50;5342526;26;20011;-69
2024/04/11 06:03:08;;;;;;;12.50;6.43;;;;;;;11.06;93.26;101272.97;5345941;26;20079;-71
2024/04/11 06:05:38;;;;;;;14.27;6.28;;;;;;;11.15;92.53;101267.34;5342963;26;20024;-68
2024/04/11 06:08:06;;;;;;;10.70;6.03;;;;;;;11.26;91.64;101267.88;5345250;26;20004;-73
2024/04/11 06:10:31;;;;;;;14.20;6.40;;;;;;;11.23;90.39;101228.97;5345929;26;20005;-68
2024/04/11 06:12:57;;;;;;;12.20;6.28;;;;;;;11.46;88.10;101246.44;5345504;26;20001;-69
2024/04/11 06:15:23;;;;;;;14.20;7.57;;;;;;;11.65;88.53;101261.06;5345476;26;19997;-70
2024/04/11 06:17:49;;;;;;;11.25;6.80;;;;;;;11.97;86.50;101289.22;5342739;26;20006;-70
2024/04/11 06:20:21;;;;;;;13.05;6.65;;;;;;;11.73;85.76;101227.78;5345699;26;20402;-71
2024/04/11 06:22:52;;;;;;;11.43;6.55;;;;;;;12.24;83.65;101274.03;5343065;26;20637;-68
2024/04/11 06:25:25;;;;;;;10.65;7.07;;;;;;;12.41;83.72;101269.56;5345844;26;20007;-71
2024/04/11 06:27:52;;;;;;;8.88;6.47;;;;;;;12.66;84.50;101291.31;5345165;26;20405;-71
2024/04/11 06:30:19;;;;;;;12.73;6.22;;;;;;;12.78;82.72;101280.56;5345381;26;20001;-68
2024/04/11 06:32:49;;;;;;;15.20;7.55;;;;;;;13.01;80.35;101297.06;5345077;26;20011;-69
2024/04/11 06:35:14;;;;;;;12.60;6.78;;;;;;;13.13;79.74;101288.88;5344760;26;20005;-68
2024/04/11 06:37:45;;;;;;;14.57;7.63;;;;;;;13.02;79.80;101253.88;5345042;26;20478;-68
2024/04/11 06:40:14;;;;;;;14.85;7.18;;;;;;;13.43;78.01;101291.84;5345221;26;20063;-69
2024/04/11 06:42:50;;;;;;;12.55;7.13;;;;;;;13.48;80.01;101301.50;5345251;26;19997;-67
2024/04/11 06:45:23;;;;;;;12.85;7.32;;;;;;;13.50;79.55;101298.13;5345198;26;20012;-68
2024/04/11 06:47:54;;;;;;;10.70;6.93;;;;;;;13.71;77.87;101299.78;5372346;26;19997;-69
2024/04/11 06:50:23;;;;;;;13.32;7.80;;;;;;;13.73;77.27;101296.41;5345303;26;20005;-68
2024/04/11 06:52:49;;;;;;;11.00;7.00;;;;;;;13.96;75.47;101267.81;5370855;26;20008;-71
2024/04/11 06:55:14;;;;;;;12.48;7.70;;;;;;;14.24;77.01;101305.13;5371509;26;20040;-68
2024/04/11 06:57:44;;;;;;;12.95;7.25;;;;;;;14.29;78.49;101313.09;5345144;26;20004;-68
2024/04/11 07:00:35;;;;;;;16.33;8.20;;;;;;;14.38;77.65;101310.81;5344913;26;20005;-68
2024/04/11 07:03:16;;;;;;;14.57;7.85;;;;;;;14.59;75.43;101302.88;5344910;26;20024;-68
2024/04/11 07:05:56;;;;;;;14.82;8.18;;;;;;;14.77;75.67;101304.38;5372501;26;19997;-73
2024/04/11 07:08:30;;;;;;;16.20;7.95;;;;;;;15.01;75.58;101307.75;5344917;26;20005;-68
2024/04/11 07:11:08;;;;;;;11.73;7.47;;;;;;;14.96;77.37;101275.53;5346876;26;20000;-69
2024/04/11 07:13:34;;;;;;;12.70;7.55;;;;;;;15.39;75.59;101307.22;5376884;26;20004;-69
2024/04/11 07:16:01;;;;;;;16.73;8.00;;;;;;;15.49;74.81;101311.84;5379416;26;20697;-75
2024/04/11 07:18:38;;;;;;;16.05;7.55;;;;;;;15.79;73.30;101310.13;5378021;26;20318;-72
2024/04/11 07:21:07;;;;;;;13.07;7.03;;;;;;;15.93;70.69;101298.41;5379747;26;20007;-69
2024/04/11 07:23:33;;;;;;;9.68;6.03;;;;;;;15.92;67.16;101314.00;5376884;26;19998;-74
2024/04/11 07:25:58;;;;;;;15.55;6.88;;;;;;;15.85;67.62;101303.41;5379544;26;19996;-70
2024/04/11 07:28:24;;;;;;;12.25;6.82;;;;;;;15.91;67.50;101310.47;5379096;26;19999;-69
2024/04/11 07:30:49;;;;;;;11.45;5.57;;;;;;;15.94;67.61;101305.38;5379397;26;20039;-72
2024/04/11 07:33:16;;;;;;;10.32;5.78;;;;;;;16.04;67.44;101316.03;5406961;26;19996;-69
2024/04/11 07:35:43;;;;;;;10.43;5.65;;;;;;;15.85;67.37;101272.16;5379149;26;20003;-68
2024/04/11 07:38:08;;;;;;;10.77;5.18;;;;;;;15.94;68.14;101263.72;5378921;26;19993;-68
2024/04/11 07:40:45;;;;;;;8.82;4.85;;;;;;;16.29;62.12;101309.81;5378935;26;19993;-74
2024/04/11 07:43:13;;;;;;;9.13;4.55;;;;;;;16.16;64.11;101274.69;5379025;26;20046;-69
2024/04/11 07:45:40;;;;;;;9.73;5.15;;;;;;;16.46;62.70;101310.22;5376367;26;20082;-69
2024/04/11 07:48:10;;;;;;;8.02;4.75;;;;;;;16.63;65.16;101310.69;5380881;26;20007;-71
2024/04/11 07:50:36;;;;;;;6.60;4.22;;;;;;;16.70;62.97;101316.91;5382570;26;20040;-68
2024/04/11 07:53:14;;;;;;;6.40;4.20;;;;;;;16.80;59.79;101306.78;5382478;26;20028;-68
2024/04/11 07:55:46;;;;;;;7.57;4.47;;;;;;;17.01;58.03;101305.56;5382604;26;19996;-68
2024/04/11 07:58:18;;;;;;;9.80;4.15;;;;;;;17.29;56.57;101309.69;5380941;26;20381;-68
2024/04/11 08:00:47;;;;;;;7.28;3.75;;;;;;;17.37;55.95;101315.09;5382503;26;20011;-71
2024/04/11 08:03:17;;;;;;;;;;;;;;;17.59;58.05;101312.97;5383083;26;20007;-69
2024/04/11 08:05:49;;;;;;;7.85;4.18;;;;;;;17.65;53.38;101300.03;5382139;26;19926;-71
2024/04/11 08:08:20;;;;;;;8.00;3.70;;;;;;;17.58;55.06;101279.84;5382264;26;20367;-69
2024/04/11 08:10:49;;;;;;;7.95;3.58;;;;;;;17.97;54.26;101327.69;5379610;26;20326;-71
2024/04/11 08:13:18;;;;;;;7.63;4.03;;;;;;;18.10;50.84;101324.47;5382367;26;20006;-69
2024/04/11 08:15:44;;;;;;;8.35;3.97;;;;;;;18.18;53.37;101316.78;5382518;26;19996;-74
2024/04/11 08:18:11;;;;;;;7.03;4.53;;;;;;;18.28;52.69;101316.13;5382323;26;20073;-69
2024/04/11 08:20:36;;;;;;;8.90;3.50;;;;;;;18.41;46.96;101298.94;5382406;26;20000;-76
2024/04/11 08:23:03;;;;;;;4.43;3.20;;;;;;;18.62;49.68;101315.84;5382307;26;20011;-72
2024/04/11 08:25:29;;;;;;;6.45;3.80;;;;;;;18.78;46.71;101319.59;5382476;26;20477;-70
2024/04/11 08:27:56;;;;;;;10.07;3.92;;;;;;;18.96;48.02;101319.06;5382050;26;20477;-70
2024/04/11 08:30:22;;;;;;;9.23;3.38;;;;;;;19.00;44.45;101295.56;5369712;26;20012;-74
2024/04/11 08:32:47;;;;;;;7.72;3.95;;;;;;;19.12;47.30;101286.16;5346982;26;20016;-70
2024/04/11 08:35:17;;;;;;;11.35;3.90;;;;;;;19.30;47.41;101303.88;5406650;26;20057;-69
2024/04/11 08:37:47;;;;;;;6.78;3.78;;;;;;;19.34;45.93;101295.19;5381212;26;20000;-70
2024/04/11 08:40:13;;;;;;;6.45;3.60;;;;;;;19.59;45.93;101311.22;5381457;26;20496;-75
2024/04/11 08:42:41;;;;;;;7.47;3.88;;;;;;;19.86;44.87;101308.13;5380943;26;19997;-69
2024/04/11 08:45:07;;;;;;;5.95;3.60;;;;;;;20.04;46.81;101310.09;5381096;26;20000;-74
2024/04/11 08:47:34;;;;;;;5.65;3.92;;;;;;;20.12;44.80;101310.16;5380702;26;20000;-74
2024/04/11 08:49:59;;;;;;;17.38;4.55;;;;;;;20.20;43.18;101295.41;5380800;26;20453;-68
2024/04/11 08:52:30;;;;;;;7.28;4.32;;;;;;;20.42;44.76;101314.84;5380987;26;20000;-68
2024/04/11 08:54:57;;;;;;;7.75;4.13;;;;;;;20.60;44.07;101311.53;5380863;26;20015;-71
2024/04/11 08:57:23;;;;;;;9.15;3.75;;;;;;;20.67;43.79;101294.06;5380925;26;20442;-71
2024/04/11 08:59:49;;;;;;;8.95;4.03;;;;;;;20.77;41.42;101289.81;5378807;26;20019;-72
2024/04/11 09:02:15;;;;;;;8.57;4.30;;;;;;;20.91;42.75;101305.66;5380599;26;20000;-70
2024/04/11 09:04:41;;;;;;;9.40;4.13;;;;;;;21.07;41.64;101307.56;5380866;26;20039;-69
2024/04/11 09:07:20;;;;;;;9.00;4.30;;;;;;;20.90;42.74;101249.69;5378902;26;20015;-75
2024/04/11 09:09:52;;;;;;;9.90;4.07;;;;;;;21.39;44.59;101313.88;5377873;26;20658;-69
2024/04/11 09:12:22;;;;;;;13.65;4.75;;;;;;;21.46;45.17;101303.41;5358424;26;20004;-69
2024/04/11 09:14:48;;;;;;;16.05;5.22;;;;;;;21.48;42.29;101304.31;5377764;26;20004;-69
2024/04/11 09:17:15;;;;;;;8.90;4.32;;;;;;;21.50;43.10;101302.53;5380734;26;20346;-69
2024/04/11 09:19:41;;;;;;;12.90;4.72;;;;;;;21.41;43.02;101284.13;5380122;26;20010;-74
2024/04/11 09:22:13;;;;;;;10.48;4.57;;;;;;;21.56;43.72;101307.00;5380355;26;20371;-72
2024/04/11 09:24:41;;;;;;;11.73;4.65;;;;;;;21.57;44.84;101300.88;5378576;26;20004;-72
2024/04/11 09:27:08;;;;;;;8.93;4.85;;;;;;;21.71;42.74;101300.03;5380623;26;20015;-70
2024/04/11 09:29:36;;;;;;;10.50;4.97;;;;;;;21.78;42.15;101302.72;5380219;26;20012;-70
2024/04/11 09:32:03;;;;;;;10.95;4.63;;;;;;;21.79;42.86;101293.06;5380797;26;20338;-72
2024/04/11 09:34:30;;;;;;;13.52;5.07;;;;;;;21.75;40.12;101297.44;5380310;26;20065;-75
2024/04/11 09:36:59;;;;;;;9.73;4.70;;;;;;;21.91;40.49;101303.63;5380547;26;20001;-69
2024/04/11 09:39:56;;;;;;;9.07;4.23;;;;;;;21.98;39.43;101294.00;5378319;26;20019;-73
2024/04/11 09:42:26;;;;;;;14.38;4.50;;;;;;;22.12;42.01;101300.19;5380277;26;20274;-72
2024/04/11 09:44:55;;;;;;;9.93;4.20;;;;;;;21.99;38.37;101269.47;5358108;26;20004;-70
2024/04/11 09:47:31;;;;;;;8.77;4.43;;;;;;;22.14;41.83;101279.16;5380182;26;20447;-75
2024/04/11 09:50:00;;;;;;;7.50;4.38;;;;;;;22.53;38.55;101308.16;5380262;26;19996;-72
2024/04/11 09:52:37;;;;;;;7.55;3.85;;;;;;;22.66;38.71;101293.28;5378395;26;20103;-69
2024/04/11 09:55:04;;;;;;;10.05;3.55;;;;;;;22.80;37.44;101275.72;5380366;26;20077;-73
2024/04/11 09:57:36;;;;;;;9.68;3.75;;;;;;;23.07;38.86;101300.25;5406926;26;20011;-70
2024/04/11 10:00:07;;;;;;;10.40;4.05;;;;;;;23.02;38.28;101265.16;5380439;26;20000;-73
2024/04/11 10:02:35;;;;;;;8.77;4.50;;;;;;;23.39;37.38;101291.41;5380002;26;20033;-72
2024/04/11 10:05:05;;;;;;;11.18;3.85;;;;;;;23.42;35.84;101254.53;5380007;26;20106;-75
2024/04/11 10:07:41;;;;;;;15.45;4.70;;;;;;;23.55;35.55;101253.59;5379802;26;20000;-70
2024/04/11 10:10:27;;;;;;;10.23;4.38;;;;;;;23.78;35.11;101267.56;5378730;26;20005;-73
2024/04/11 10:12:58;;;;;;;8.35;4.13;;;;;;;23.80;37.25;101245.59;5379519;26;19996;-73
2024/04/11 10:15:29;;;;;;;6.70;4.45;;;;;;;24.11;36.36;101278.81;5379806;26;19997;-73
2024/04/11 10:18:08;;;;;;;10.07;4.38;;;;;;;24.15;33.47;101262.09;5380504;26;20002;-70
2024/04/11 10:21:02;;;;;;;11.32;4.70;;;;;;;24.35;34.84;101268.09;5380339;26;20008;-77
2024/04/11 10:23:29;;;;;;;6.78;4.30;;;;;;;24.49;32.96;101265.34;5380142;26;20000;-70
2024/04/11 10:25:59;;;;;;;6.35;4.15;;;;;;;24.50;34.97;101242.47;5380748;26;20000;-70
2024/04/11 10:28:38;;;;;;;11.15;4.03;;;;;;;24.53;34.70;101253.00;5380675;26;20007;-70
2024/04/11 10:31:18;;;;;;;8.25;3.92;;;;;;;24.53;33.39;101238.03;5380826;26;20413;-73
2024/04/11 10:33:53;;;;;;;7.97;4.15;;;;;;;24.79;33.57;101249.31;5380323;26;19996;-70
2024/04/11 10:36:21;;;;;;;7.85;4.07;;;;;;;25.00;34.67;101242.91;5380237;26;20034;-72
2024/04/11 10:38:52;;;;;;;6.60;3.90;;;;;;;25.07;34.18;101243.72;5380077;26;20011;-69
2024/04/11 10:41:20;;;;;;;8.32;3.97;;;;;;;25.15;33.32;101249.81;5407263;26;20417;-71
2024/04/11 10:43:49;;;;;;;14.52;4.15;;;;;;;25.11;34.37;101240.13;5380092;26;20068;-69
2024/04/11 10:46:20;;;;;;;9.88;4.53;;;;;;;25.18;33.89;101253.28;5380067;26;20007;-70
2024/04/11 10:48:52;;;;;;;40.47;6.63;;;;;;;25.27;33.24;101246.13;5380180;26;19993;-70
2024/04/11 10:51:20;;;;;;;11.85;4.55;;;;;;;25.33;33.84;101239.03;5367344;26;20008;-73
2024/04/11 10:54:09;;;;;;;7.50;4.30;;;;;;;25.48;33.58;101245.03;5345272;26;20048;-71
2024/04/11 10:56:41;;;;;;;7.75;4.43;;;;;;;25.49;33.39;101237.06;5345131;26;20025;-74
2024/04/11 10:59:14;;;;;;;17.42;5.20;;;;;;;25.52;33.54;101213.25;5344651;26;20427;-74
2024/04/11 11:01:47;;;;;;;26.30;5.95;;;;;;;25.77;32.67;101244.66;5344759;26;19997;-73
2024/04/11 11:04:15;;;;;;;17.25;5.80;;;;;;;25.73;32.88;101213.81;5344529;26;19996;-74
2024/04/11 11:06:54;;;;;;;17.67;5.53;;;;;;;25.99;32.27;101247.88;5342920;26;20008;-72
2024/04/11 11:09:22;;;;;;;14.50;5.28;;;;;;;26.11;31.90;101233.59;5342671;26;20001;-72
2024/04/11 11:11:49;;;;;;;21.38;5.80;;;;;;;26.21;32.20;101236.09;5345984;26;19997;-74
2024/04/11 11:14:20;;;;;;;17.20;5.65;;;;;;;26.22;32.56;101214.91;5363891;26;20047;-72
2024/04/11 11:16:47;;;;;;;11.65;4.15;;;;;;;26.44;31.23;101230.41;5378856;26;20004;-72
2024/04/11 11:19:20;;;;;;;8.10;4.22;;;;;;;26.61;31.65;101235.44;5378814;26;20019;-70
2024/04/11 11:21:50;;;;;;;15.48;5.07;;;;;;;26.70;30.37;101242.34;5375200;26;20016;-71
2024/04/11 11:24:23;;;;;;;15.30;5.20;;;;;;;26.77;31.16;101236.06;5382042;26;20004;-70
2024/04/11 11:26:53;;;;;;;12.02;4.80;;;;;;;26.81;29.72;101221.84;5381873;26;20005;-70
2024/04/11 11:29:20;;;;;;;13.70;4.88;;;;;;;26.60;31.19;101217.78;5382081;26;20077;-67
2024/04/11 11:31:50;;;;;;;12.68;4.80;;;;;;;26.66;30.31;101230.06;5382162;26;20435;-68